sensor_id;sensor_type;location;lat;lon;timestamp;P1;durP1;ratioP1;P2;durP2;ratioP2
28988;SDS011;16089;59.952;10.818;2022-08-03T00:00:52;2.60;;;1.20;;
28988;SDS011;16089;59.952;10.818;2022-08-03T00:03:19;1.58;;;1.00;;
28988;SDS011;16089;59.952;10.818;2022-08-03T00:05:45;2.63;;;1.05;;
28988;SDS011;16089;59.952;10.818;2022-08-03T00:08:13;2.95;;;0.95;;
28988;SDS011;16089;59.952;10.818;2022-08-03T00:10:39;2.65;;;1.73;;
28988;SDS011;16089;59.952;10.818;2022-08-03T00:13:06;2.78;;;1.50;;
28988;SDS011;16089;59.952;10.818;2022-08-03T00:15:32;2.80;;;1.55;;
28988;SDS011;16089;59.952;10.818;2022-08-03T00:17:59;2.83;;;2.00;;
28988;SDS011;16089;59.952;10.818;2022-08-03T00:20:25;4.22;;;2.80;;
28988;SDS011;16089;59.952;10.818;2022-08-03T00:22:52;5.18;;;2.45;;
28988;SDS011;16089;59.952;10.818;2022-08-03T00:25:20;7.30;;;2.65;;
28988;SDS011;16089;59.952;10.818;2022-08-03T00:27:46;3.55;;;2.60;;
28988;SDS011;16089;59.952;10.818;2022-08-03T00:30:12;4.75;;;2.38;;
28988;SDS011;16089;59.952;10.818;2022-08-03T00:32:39;3.75;;;3.08;;
28988;SDS011;16089;59.952;10.818;2022-08-03T00:35:05;5.28;;;2.95;;
28988;SDS011;16089;59.952;10.818;2022-08-03T00:37:32;3.88;;;3.20;;
28988;SDS011;16089;59.952;10.818;2022-08-03T00:39:58;5.45;;;3.45;;
28988;SDS011;16089;59.952;10.818;2022-08-03T00:42:26;6.53;;;5.15;;
28988;SDS011;16089;59.952;10.818;2022-08-03T00:44:52;7.90;;;5.57;;
28988;SDS011;16089;59.952;10.818;2022-08-03T00:47:19;6.63;;;4.85;;
28988;SDS011;16089;59.952;10.818;2022-08-03T00:49:45;7.95;;;5.30;;
28988;SDS011;16089;59.952;10.818;2022-08-03T00:52:12;7.30;;;5.70;;
28988;SDS011;16089;59.952;10.818;2022-08-03T00:54:39;9.07;;;4.88;;
28988;SDS011;16089;59.952;10.818;2022-08-03T00:57:05;10.73;;;5.45;;
28988;SDS011;16089;59.952;10.818;2022-08-03T00:59:33;5.90;;;4.22;;
28988;SDS011;16089;59.952;10.818;2022-08-03T01:02:00;7.10;;;5.03;;
28988;SDS011;16089;59.952;10.818;2022-08-03T01:04:27;8.30;;;5.55;;
28988;SDS011;16089;59.952;10.818;2022-08-03T01:06:57;9.30;;;5.38;;
28988;SDS011;16089;59.952;10.818;2022-08-03T01:09:29;7.15;;;5.43;;
28988;SDS011;16089;59.952;10.818;2022-08-03T01:11:59;8.70;;;5.80;;
28988;SDS011;16089;59.952;10.818;2022-08-03T01:14:31;10.18;;;5.85;;
28988;SDS011;16089;59.952;10.818;2022-08-03T01:17:01;11.02;;;7.32;;
28988;SDS011;16089;59.952;10.818;2022-08-03T01:19:33;13.77;;;7.82;;
28988;SDS011;16089;59.952;10.818;2022-08-03T01:22:06;12.55;;;6.50;;
28988;SDS011;16089;59.952;10.818;2022-08-03T01:24:36;10.60;;;5.88;;
28988;SDS011;16089;59.952;10.818;2022-08-03T01:27:10;9.90;;;6.40;;
28988;SDS011;16089;59.952;10.818;2022-08-03T01:29:48;10.50;;;6.53;;
28988;SDS011;16089;59.952;10.818;2022-08-03T01:32:15;10.13;;;6.60;;
28988;SDS011;16089;59.952;10.818;2022-08-03T01:34:44;12.18;;;6.57;;
28988;SDS011;16089;59.952;10.818;2022-08-03T01:37:11;17.60;;;7.50;;
28988;SDS011;16089;59.952;10.818;2022-08-03T01:39:40;15.80;;;6.78;;
28988;SDS011;16089;59.952;10.818;2022-08-03T01:42:08;16.77;;;7.15;;
28988;SDS011;16089;59.952;10.818;2022-08-03T01:44:37;16.42;;;7.50;;
28988;SDS011;16089;59.952;10.818;2022-08-03T01:47:06;20.45;;;7.38;;
28988;SDS011;16089;59.952;10.818;2022-08-03T01:49:35;27.08;;;8.18;;
28988;SDS011;16089;59.952;10.818;2022-08-03T01:52:02;27.40;;;8.30;;
28988;SDS011;16089;59.952;10.818;2022-08-03T01:54:29;24.15;;;7.70;;
28988;SDS011;16089;59.952;10.818;2022-08-03T01:56:56;24.33;;;8.40;;
28988;SDS011;16089;59.952;10.818;2022-08-03T01:59:22;27.85;;;9.18;;
28988;SDS011;16089;59.952;10.818;2022-08-03T02:01:50;25.67;;;7.75;;
28988;SDS011;16089;59.952;10.818;2022-08-03T02:04:19;23.38;;;8.32;;
28988;SDS011;16089;59.952;10.818;2022-08-03T02:06:47;22.05;;;7.25;;
28988;SDS011;16089;59.952;10.818;2022-08-03T02:09:14;22.30;;;7.10;;
28988;SDS011;16089;59.952;10.818;2022-08-03T02:11:41;23.05;;;7.78;;
28988;SDS011;16089;59.952;10.818;2022-08-03T02:14:07;16.23;;;6.43;;
28988;SDS011;16089;59.952;10.818;2022-08-03T02:16:35;20.63;;;7.70;;
28988;SDS011;16089;59.952;10.818;2022-08-03T02:19:02;17.85;;;6.93;;
28988;SDS011;16089;59.952;10.818;2022-08-03T02:21:31;17.73;;;7.00;;
28988;SDS011;16089;59.952;10.818;2022-08-03T02:23:58;21.17;;;6.70;;
28988;SDS011;16089;59.952;10.818;2022-08-03T02:26:25;17.25;;;6.88;;
28988;SDS011;16089;59.952;10.818;2022-08-03T02:28:53;21.33;;;7.32;;
28988;SDS011;16089;59.952;10.818;2022-08-03T02:31:21;19.75;;;7.95;;
28988;SDS011;16089;59.952;10.818;2022-08-03T02:33:49;18.75;;;8.13;;
28988;SDS011;16089;59.952;10.818;2022-08-03T02:36:18;18.15;;;7.32;;
28988;SDS011;16089;59.952;10.818;2022-08-03T02:38:48;20.77;;;7.80;;
28988;SDS011;16089;59.952;10.818;2022-08-03T02:41:15;18.95;;;7.38;;
28988;SDS011;16089;59.952;10.818;2022-08-03T02:43:44;22.45;;;7.78;;
28988;SDS011;16089;59.952;10.818;2022-08-03T02:46:12;23.60;;;8.40;;
28988;SDS011;16089;59.952;10.818;2022-08-03T02:48:38;20.48;;;7.25;;
28988;SDS011;16089;59.952;10.818;2022-08-03T02:51:06;22.33;;;7.72;;
28988;SDS011;16089;59.952;10.818;2022-08-03T02:53:32;21.02;;;6.70;;
28988;SDS011;16089;59.952;10.818;2022-08-03T02:56:01;16.67;;;6.25;;
28988;SDS011;16089;59.952;10.818;2022-08-03T02:58:27;16.83;;;6.50;;
28988;SDS011;16089;59.952;10.818;2022-08-03T03:00:54;13.02;;;6.40;;
28988;SDS011;16089;59.952;10.818;2022-08-03T03:03:21;25.23;;;7.60;;
28988;SDS011;16089;59.952;10.818;2022-08-03T03:05:47;19.77;;;6.88;;
28988;SDS011;16089;59.952;10.818;2022-08-03T03:08:15;20.65;;;6.82;;
28988;SDS011;16089;59.952;10.818;2022-08-03T03:10:42;21.85;;;6.80;;
28988;SDS011;16089;59.952;10.818;2022-08-03T03:13:10;22.10;;;7.05;;
28988;SDS011;16089;59.952;10.818;2022-08-03T03:15:38;18.98;;;7.00;;
28988;SDS011;16089;59.952;10.818;2022-08-03T03:18:06;18.65;;;6.10;;
28988;SDS011;16089;59.952;10.818;2022-08-03T03:20:34;21.13;;;6.57;;
28988;SDS011;16089;59.952;10.818;2022-08-03T03:23:01;17.88;;;6.80;;
28988;SDS011;16089;59.952;10.818;2022-08-03T03:25:29;20.40;;;7.05;;
28988;SDS011;16089;59.952;10.818;2022-08-03T03:27:57;16.27;;;6.57;;
28988;SDS011;16089;59.952;10.818;2022-08-03T03:30:25;23.88;;;7.32;;
28988;SDS011;16089;59.952;10.818;2022-08-03T03:32:52;21.63;;;7.22;;
28988;SDS011;16089;59.952;10.818;2022-08-03T03:35:18;17.08;;;6.50;;
28988;SDS011;16089;59.952;10.818;2022-08-03T03:37:45;19.83;;;6.45;;
28988;SDS011;16089;59.952;10.818;2022-08-03T03:40:11;23.40;;;7.53;;
28988;SDS011;16089;59.952;10.818;2022-08-03T03:42:39;20.73;;;7.13;;
28988;SDS011;16089;59.952;10.818;2022-08-03T03:45:06;21.55;;;7.60;;
28988;SDS011;16089;59.952;10.818;2022-08-03T03:47:34;18.95;;;6.70;;
28988;SDS011;16089;59.952;10.818;2022-08-03T03:50:00;21.98;;;7.00;;
28988;SDS011;16089;59.952;10.818;2022-08-03T03:52:27;24.20;;;7.03;;
28988;SDS011;16089;59.952;10.818;2022-08-03T03:54:53;19.30;;;7.00;;
28988;SDS011;16089;59.952;10.818;2022-08-03T03:57:19;20.67;;;7.32;;
28988;SDS011;16089;59.952;10.818;2022-08-03T03:59:46;20.23;;;6.35;;
28988;SDS011;16089;59.952;10.818;2022-08-03T04:02:13;16.58;;;6.20;;
28988;SDS011;16089;59.952;10.818;2022-08-03T04:04:40;27.45;;;7.57;;
28988;SDS011;16089;59.952;10.818;2022-08-03T04:07:25;24.75;;;6.97;;
28988;SDS011;16089;59.952;10.818;2022-08-03T04:10:09;28.30;;;7.97;;
28988;SDS011;16089;59.952;10.818;2022-08-03T04:12:53;26.90;;;7.90;;
28988;SDS011;16089;59.952;10.818;2022-08-03T04:15:22;24.50;;;8.10;;
28988;SDS011;16089;59.952;10.818;2022-08-03T04:17:49;25.83;;;8.20;;
28988;SDS011;16089;59.952;10.818;2022-08-03T04:20:19;20.73;;;7.40;;
28988;SDS011;16089;59.952;10.818;2022-08-03T04:22:46;25.45;;;7.65;;
28988;SDS011;16089;59.952;10.818;2022-08-03T04:25:13;27.90;;;8.98;;
28988;SDS011;16089;59.952;10.818;2022-08-03T04:27:43;23.70;;;7.82;;
28988;SDS011;16089;59.952;10.818;2022-08-03T04:30:10;22.45;;;7.68;;
28988;SDS011;16089;59.952;10.818;2022-08-03T04:32:37;21.33;;;7.95;;
28988;SDS011;16089;59.952;10.818;2022-08-03T04:35:04;27.88;;;8.02;;
28988;SDS011;16089;59.952;10.818;2022-08-03T04:37:34;18.77;;;7.18;;
28988;SDS011;16089;59.952;10.818;2022-08-03T04:40:01;24.05;;;7.72;;
28988;SDS011;16089;59.952;10.818;2022-08-03T04:42:28;22.15;;;7.95;;
28988;SDS011;16089;59.952;10.818;2022-08-03T04:44:56;22.38;;;8.27;;
28988;SDS011;16089;59.952;10.818;2022-08-03T04:47:22;22.27;;;7.70;;
28988;SDS011;16089;59.952;10.818;2022-08-03T04:49:49;25.85;;;7.53;;
28988;SDS011;16089;59.952;10.818;2022-08-03T04:52:16;18.75;;;6.75;;
28988;SDS011;16089;59.952;10.818;2022-08-03T04:54:44;20.40;;;7.22;;
28988;SDS011;16089;59.952;10.818;2022-08-03T04:57:12;22.92;;;8.82;;
28988;SDS011;16089;59.952;10.818;2022-08-03T04:59:38;21.75;;;7.68;;
28988;SDS011;16089;59.952;10.818;2022-08-03T05:02:04;18.73;;;6.50;;
28988;SDS011;16089;59.952;10.818;2022-08-03T05:04:31;20.48;;;7.55;;
28988;SDS011;16089;59.952;10.818;2022-08-03T05:06:58;19.63;;;7.72;;
28988;SDS011;16089;59.952;10.818;2022-08-03T05:09:24;21.40;;;7.93;;
28988;SDS011;16089;59.952;10.818;2022-08-03T05:11:52;20.75;;;6.70;;
28988;SDS011;16089;59.952;10.818;2022-08-03T05:14:19;14.68;;;6.70;;
28988;SDS011;16089;59.952;10.818;2022-08-03T05:16:45;15.23;;;6.78;;
28988;SDS011;16089;59.952;10.818;2022-08-03T05:19:12;18.75;;;7.18;;
28988;SDS011;16089;59.952;10.818;2022-08-03T05:21:38;15.30;;;6.95;;
28988;SDS011;16089;59.952;10.818;2022-08-03T05:24:05;17.30;;;6.85;;
28988;SDS011;16089;59.952;10.818;2022-08-03T05:26:31;18.17;;;6.97;;
28988;SDS011;16089;59.952;10.818;2022-08-03T05:28:59;20.80;;;8.30;;
28988;SDS011;16089;59.952;10.818;2022-08-03T05:31:25;18.35;;;7.25;;
28988;SDS011;16089;59.952;10.818;2022-08-03T05:33:52;20.15;;;7.43;;
28988;SDS011;16089;59.952;10.818;2022-08-03T05:36:18;21.63;;;6.88;;
28988;SDS011;16089;59.952;10.818;2022-08-03T05:38:45;23.55;;;7.15;;
28988;SDS011;16089;59.952;10.818;2022-08-03T05:41:11;14.90;;;6.70;;
28988;SDS011;16089;59.952;10.818;2022-08-03T05:43:37;17.52;;;7.43;;
28988;SDS011;16089;59.952;10.818;2022-08-03T05:46:05;18.50;;;7.22;;
28988;SDS011;16089;59.952;10.818;2022-08-03T05:48:32;26.70;;;7.53;;
28988;SDS011;16089;59.952;10.818;2022-08-03T05:50:58;17.17;;;6.90;;
28988;SDS011;16089;59.952;10.818;2022-08-03T05:53:24;20.23;;;7.20;;
28988;SDS011;16089;59.952;10.818;2022-08-03T05:55:51;20.33;;;7.45;;
28988;SDS011;16089;59.952;10.818;2022-08-03T05:58:19;20.60;;;7.72;;
28988;SDS011;16089;59.952;10.818;2022-08-03T06:00:46;18.85;;;7.35;;
28988;SDS011;16089;59.952;10.818;2022-08-03T06:03:13;18.55;;;7.18;;
28988;SDS011;16089;59.952;10.818;2022-08-03T06:05:40;13.98;;;6.88;;
28988;SDS011;16089;59.952;10.818;2022-08-03T06:08:06;18.92;;;7.05;;
28988;SDS011;16089;59.952;10.818;2022-08-03T06:10:32;22.77;;;7.80;;
28988;SDS011;16089;59.952;10.818;2022-08-03T06:12:59;19.55;;;7.28;;
28988;SDS011;16089;59.952;10.818;2022-08-03T06:15:25;18.08;;;6.70;;
28988;SDS011;16089;59.952;10.818;2022-08-03T06:17:52;14.52;;;6.00;;
28988;SDS011;16089;59.952;10.818;2022-08-03T06:20:19;19.15;;;6.30;;
28988;SDS011;16089;59.952;10.818;2022-08-03T06:22:46;17.35;;;5.60;;
28988;SDS011;16089;59.952;10.818;2022-08-03T06:25:12;12.93;;;5.30;;
28988;SDS011;16089;59.952;10.818;2022-08-03T06:27:39;13.90;;;5.63;;
28988;SDS011;16089;59.952;10.818;2022-08-03T06:30:06;11.20;;;5.07;;
28988;SDS011;16089;59.952;10.818;2022-08-03T06:32:34;15.55;;;5.30;;
28988;SDS011;16089;59.952;10.818;2022-08-03T06:35:00;10.02;;;4.82;;
28988;SDS011;16089;59.952;10.818;2022-08-03T06:37:28;14.20;;;5.25;;
28988;SDS011;16089;59.952;10.818;2022-08-03T06:39:55;12.18;;;4.97;;
28988;SDS011;16089;59.952;10.818;2022-08-03T06:42:21;11.02;;;5.32;;
28988;SDS011;16089;59.952;10.818;2022-08-03T06:44:47;10.98;;;4.57;;
28988;SDS011;16089;59.952;10.818;2022-08-03T06:47:15;12.43;;;4.53;;
28988;SDS011;16089;59.952;10.818;2022-08-03T06:49:41;14.88;;;4.97;;
28988;SDS011;16089;59.952;10.818;2022-08-03T06:52:08;15.40;;;5.70;;
28988;SDS011;16089;59.952;10.818;2022-08-03T06:54:35;12.55;;;5.97;;
28988;SDS011;16089;59.952;10.818;2022-08-03T06:57:02;15.75;;;5.70;;
28988;SDS011;16089;59.952;10.818;2022-08-03T06:59:29;15.70;;;5.57;;
28988;SDS011;16089;59.952;10.818;2022-08-03T07:01:55;16.73;;;6.03;;
28988;SDS011;16089;59.952;10.818;2022-08-03T07:04:21;15.38;;;5.55;;
28988;SDS011;16089;59.952;10.818;2022-08-03T07:06:48;13.32;;;5.25;;
28988;SDS011;16089;59.952;10.818;2022-08-03T07:09:14;16.65;;;5.35;;
28988;SDS011;16089;59.952;10.818;2022-08-03T07:11:42;19.08;;;5.70;;
28988;SDS011;16089;59.952;10.818;2022-08-03T07:14:08;18.50;;;6.47;;
28988;SDS011;16089;59.952;10.818;2022-08-03T07:16:34;18.40;;;6.10;;
28988;SDS011;16089;59.952;10.818;2022-08-03T07:19:01;14.32;;;6.20;;
28988;SDS011;16089;59.952;10.818;2022-08-03T07:21:27;21.30;;;6.78;;
28988;SDS011;16089;59.952;10.818;2022-08-03T07:23:53;17.63;;;6.97;;
28988;SDS011;16089;59.952;10.818;2022-08-03T07:26:20;19.55;;;7.57;;
28988;SDS011;16089;59.952;10.818;2022-08-03T07:28:48;16.48;;;7.10;;
28988;SDS011;16089;59.952;10.818;2022-08-03T07:31:14;19.35;;;7.35;;
28988;SDS011;16089;59.952;10.818;2022-08-03T07:33:40;17.20;;;7.20;;
28988;SDS011;16089;59.952;10.818;2022-08-03T07:36:07;22.17;;;7.53;;
28988;SDS011;16089;59.952;10.818;2022-08-03T07:38:33;18.70;;;7.20;;
28988;SDS011;16089;59.952;10.818;2022-08-03T07:47:03;17.58;;;6.35;;
28988;SDS011;16089;59.952;10.818;2022-08-03T07:49:29;11.98;;;5.78;;
28988;SDS011;16089;59.952;10.818;2022-08-03T07:51:56;19.02;;;6.70;;
28988;SDS011;16089;59.952;10.818;2022-08-03T07:54:39;16.88;;;6.18;;
28988;SDS011;16089;59.952;10.818;2022-08-03T07:57:06;15.48;;;6.50;;
28988;SDS011;16089;59.952;10.818;2022-08-03T07:59:32;16.15;;;6.47;;
28988;SDS011;16089;59.952;10.818;2022-08-03T08:01:59;14.52;;;5.57;;
28988;SDS011;16089;59.952;10.818;2022-08-03T08:04:27;16.60;;;6.32;;
28988;SDS011;16089;59.952;10.818;2022-08-03T08:06:54;12.88;;;6.00;;
28988;SDS011;16089;59.952;10.818;2022-08-03T08:09:20;13.80;;;6.03;;
28988;SDS011;16089;59.952;10.818;2022-08-03T08:11:48;12.05;;;5.53;;
28988;SDS011;16089;59.952;10.818;2022-08-03T08:14:14;15.63;;;5.43;;
28988;SDS011;16089;59.952;10.818;2022-08-03T08:16:40;13.35;;;4.97;;
28988;SDS011;16089;59.952;10.818;2022-08-03T08:19:07;12.55;;;5.43;;
28988;SDS011;16089;59.952;10.818;2022-08-03T08:21:34;12.70;;;4.82;;
28988;SDS011;16089;59.952;10.818;2022-08-03T08:24:01;10.65;;;4.43;;
28988;SDS011;16089;59.952;10.818;2022-08-03T08:26:27;11.82;;;4.97;;
28988;SDS011;16089;59.952;10.818;2022-08-03T08:28:54;7.28;;;3.42;;
28988;SDS011;16089;59.952;10.818;2022-08-03T08:31:20;9.07;;;2.97;;
28988;SDS011;16089;59.952;10.818;2022-08-03T08:33:46;8.18;;;3.00;;
28988;SDS011;16089;59.952;10.818;2022-08-03T08:36:13;9.13;;;3.03;;
28988;SDS011;16089;59.952;10.818;2022-08-03T08:38:40;7.13;;;3.10;;
28988;SDS011;16089;59.952;10.818;2022-08-03T08:41:08;6.25;;;3.10;;
28988;SDS011;16089;59.952;10.818;2022-08-03T08:43:35;5.80;;;2.58;;
28988;SDS011;16089;59.952;10.818;2022-08-03T08:46:01;4.55;;;2.42;;
28988;SDS011;16089;59.952;10.818;2022-08-03T08:48:29;5.72;;;2.42;;
28988;SDS011;16089;59.952;10.818;2022-08-03T08:50:56;9.82;;;2.60;;
28988;SDS011;16089;59.952;10.818;2022-08-03T08:53:23;7.43;;;1.88;;
28988;SDS011;16089;59.952;10.818;2022-08-03T08:55:52;3.53;;;1.58;;
28988;SDS011;16089;59.952;10.818;2022-08-03T08:58:20;4.47;;;1.83;;
28988;SDS011;16089;59.952;10.818;2022-08-03T09:00:46;5.10;;;1.65;;
28988;SDS011;16089;59.952;10.818;2022-08-03T09:03:13;4.68;;;1.33;;
28988;SDS011;16089;59.952;10.818;2022-08-03T09:05:42;4.65;;;1.33;;
28988;SDS011;16089;59.952;10.818;2022-08-03T09:08:08;3.35;;;1.45;;
28988;SDS011;16089;59.952;10.818;2022-08-03T09:10:35;3.70;;;1.70;;
28988;SDS011;16089;59.952;10.818;2022-08-03T09:13:02;4.00;;;1.67;;
28988;SDS011;16089;59.952;10.818;2022-08-03T09:15:29;3.08;;;1.20;;
28988;SDS011;16089;59.952;10.818;2022-08-03T09:17:57;3.10;;;1.50;;
28988;SDS011;16089;59.952;10.818;2022-08-03T09:20:24;5.05;;;1.67;;
28988;SDS011;16089;59.952;10.818;2022-08-03T09:22:51;4.47;;;2.03;;
28988;SDS011;16089;59.952;10.818;2022-08-03T09:25:18;5.82;;;2.13;;
28988;SDS011;16089;59.952;10.818;2022-08-03T09:27:45;5.22;;;1.55;;
28988;SDS011;16089;59.952;10.818;2022-08-03T09:30:13;3.95;;;1.90;;
28988;SDS011;16089;59.952;10.818;2022-08-03T09:32:40;4.13;;;2.05;;
28988;SDS011;16089;59.952;10.818;2022-08-03T09:35:07;6.25;;;2.38;;
28988;SDS011;16089;59.952;10.818;2022-08-03T09:37:33;5.60;;;2.28;;
28988;SDS011;16089;59.952;10.818;2022-08-03T09:40:00;8.65;;;2.75;;
28988;SDS011;16089;59.952;10.818;2022-08-03T09:42:26;5.85;;;2.47;;
28988;SDS011;16089;59.952;10.818;2022-08-03T09:44:52;7.78;;;2.60;;
28988;SDS011;16089;59.952;10.818;2022-08-03T09:47:27;6.68;;;2.78;;
28988;SDS011;16089;59.952;10.818;2022-08-03T09:52:20;7.53;;;2.47;;
28988;SDS011;16089;59.952;10.818;2022-08-03T09:54:49;7.20;;;3.10;;
28988;SDS011;16089;59.952;10.818;2022-08-03T09:57:20;5.75;;;2.90;;
28988;SDS011;16089;59.952;10.818;2022-08-03T09:59:50;5.43;;;2.78;;
28988;SDS011;16089;59.952;10.818;2022-08-03T10:02:20;8.18;;;2.80;;
28988;SDS011;16089;59.952;10.818;2022-08-03T10:04:49;7.38;;;3.05;;
28988;SDS011;16089;59.952;10.818;2022-08-03T10:07:17;13.13;;;3.55;;
28988;SDS011;16089;59.952;10.818;2022-08-03T10:09:51;11.30;;;3.92;;
28988;SDS011;16089;59.952;10.818;2022-08-03T10:12:18;10.48;;;3.25;;
28988;SDS011;16089;59.952;10.818;2022-08-03T10:14:45;8.10;;;3.30;;
28988;SDS011;16089;59.952;10.818;2022-08-03T10:17:11;11.70;;;3.60;;
28988;SDS011;16089;59.952;10.818;2022-08-03T10:19:38;11.15;;;3.60;;
28988;SDS011;16089;59.952;10.818;2022-08-03T10:22:06;9.80;;;3.50;;
28988;SDS011;16089;59.952;10.818;2022-08-03T10:24:35;10.50;;;3.78;;
28988;SDS011;16089;59.952;10.818;2022-08-03T10:27:03;10.70;;;3.78;;
28988;SDS011;16089;59.952;10.818;2022-08-03T10:29:31;8.40;;;3.38;;
28988;SDS011;16089;59.952;10.818;2022-08-03T10:31:59;8.38;;;3.78;;
28988;SDS011;16089;59.952;10.818;2022-08-03T10:34:28;11.45;;;3.88;;
28988;SDS011;16089;59.952;10.818;2022-08-03T10:36:57;8.88;;;3.40;;
28988;SDS011;16089;59.952;10.818;2022-08-03T10:39:27;12.77;;;3.88;;
28988;SDS011;16089;59.952;10.818;2022-08-03T10:41:54;8.13;;;3.50;;
28988;SDS011;16089;59.952;10.818;2022-08-03T10:44:23;12.00;;;3.45;;
28988;SDS011;16089;59.952;10.818;2022-08-03T10:46:49;6.25;;;3.17;;
28988;SDS011;16089;59.952;10.818;2022-08-03T10:49:16;8.48;;;3.10;;
28988;SDS011;16089;59.952;10.818;2022-08-03T10:51:43;10.38;;;3.75;;
28988;SDS011;16089;59.952;10.818;2022-08-03T10:56:52;13.65;;;3.72;;
28988;SDS011;16089;59.952;10.818;2022-08-03T10:59:55;7.13;;;3.58;;
28988;SDS011;16089;59.952;10.818;2022-08-03T11:02:22;8.82;;;3.13;;
28988;SDS011;16089;59.952;10.818;2022-08-03T11:10:34;8.63;;;2.95;;
28988;SDS011;16089;59.952;10.818;2022-08-03T11:13:05;6.45;;;2.90;;
28988;SDS011;16089;59.952;10.818;2022-08-03T11:15:32;9.07;;;3.08;;
28988;SDS011;16089;59.952;10.818;2022-08-03T11:18:07;7.63;;;3.33;;
28988;SDS011;16089;59.952;10.818;2022-08-03T11:20:47;8.35;;;3.10;;
28988;SDS011;16089;59.952;10.818;2022-08-03T11:23:14;8.35;;;2.90;;
28988;SDS011;16089;59.952;10.818;2022-08-03T11:28:27;7.55;;;3.10;;
28988;SDS011;16089;59.952;10.818;2022-08-03T11:30:54;6.13;;;2.90;;
28988;SDS011;16089;59.952;10.818;2022-08-03T11:33:29;6.53;;;3.03;;
28988;SDS011;16089;59.952;10.818;2022-08-03T11:35:57;6.03;;;3.50;;
28988;SDS011;16089;59.952;10.818;2022-08-03T11:38:23;8.32;;;3.85;;
28988;SDS011;16089;59.952;10.818;2022-08-03T11:40:50;6.18;;;3.35;;
28988;SDS011;16089;59.952;10.818;2022-08-03T11:46:07;8.60;;;3.60;;
28988;SDS011;16089;59.952;10.818;2022-08-03T11:48:38;7.50;;;3.40;;
28988;SDS011;16089;59.952;10.818;2022-08-03T11:51:07;8.25;;;3.53;;
28988;SDS011;16089;59.952;10.818;2022-08-03T11:53:43;8.55;;;3.70;;
28988;SDS011;16089;59.952;10.818;2022-08-03T11:56:11;7.03;;;3.30;;
28988;SDS011;16089;59.952;10.818;2022-08-03T11:58:44;8.18;;;3.42;;
28988;SDS011;16089;59.952;10.818;2022-08-03T12:01:12;7.43;;;3.42;;
28988;SDS011;16089;59.952;10.818;2022-08-03T12:03:40;6.95;;;3.08;;
28988;SDS011;16089;59.952;10.818;2022-08-03T12:06:07;4.97;;;2.95;;
28988;SDS011;16089;59.952;10.818;2022-08-03T12:08:34;6.72;;;2.65;;
28988;SDS011;16089;59.952;10.818;2022-08-03T12:11:02;5.78;;;2.63;;
28988;SDS011;16089;59.952;10.818;2022-08-03T12:13:37;6.43;;;2.95;;
28988;SDS011;16089;59.952;10.818;2022-08-03T12:16:04;6.72;;;2.80;;
28988;SDS011;16089;59.952;10.818;2022-08-03T12:18:31;6.63;;;3.00;;
28988;SDS011;16089;59.952;10.818;2022-08-03T12:21:02;6.72;;;2.70;;
28988;SDS011;16089;59.952;10.818;2022-08-03T12:23:29;4.90;;;2.85;;
28988;SDS011;16089;59.952;10.818;2022-08-03T12:25:59;5.13;;;2.47;;
28988;SDS011;16089;59.952;10.818;2022-08-03T12:28:26;4.63;;;2.50;;
28988;SDS011;16089;59.952;10.818;2022-08-03T12:30:52;5.60;;;2.42;;
28988;SDS011;16089;59.952;10.818;2022-08-03T12:33:20;6.90;;;2.90;;
28988;SDS011;16089;59.952;10.818;2022-08-03T12:35:49;5.43;;;2.70;;
28988;SDS011;16089;59.952;10.818;2022-08-03T12:38:20;4.88;;;2.03;;
28988;SDS011;16089;59.952;10.818;2022-08-03T12:40:59;5.80;;;2.70;;
28988;SDS011;16089;59.952;10.818;2022-08-03T12:43:26;6.32;;;2.15;;
28988;SDS011;16089;59.952;10.818;2022-08-03T12:46:11;4.38;;;2.40;;
28988;SDS011;16089;59.952;10.818;2022-08-03T12:48:57;3.33;;;1.92;;
28988;SDS011;16089;59.952;10.818;2022-08-03T12:51:25;7.38;;;2.28;;
28988;SDS011;16089;59.952;10.818;2022-08-03T12:53:52;5.90;;;2.35;;
28988;SDS011;16089;59.952;10.818;2022-08-03T12:56:19;5.13;;;2.10;;
28988;SDS011;16089;59.952;10.818;2022-08-03T12:58:45;4.60;;;2.42;;
28988;SDS011;16089;59.952;10.818;2022-08-03T13:01:14;6.53;;;2.22;;
28988;SDS011;16089;59.952;10.818;2022-08-03T13:03:41;6.72;;;2.40;;
28988;SDS011;16089;59.952;10.818;2022-08-03T13:06:11;9.27;;;2.20;;
28988;SDS011;16089;59.952;10.818;2022-08-03T13:08:39;5.07;;;1.88;;
28988;SDS011;16089;59.952;10.818;2022-08-03T13:11:18;9.77;;;1.98;;
28988;SDS011;16089;59.952;10.818;2022-08-03T13:13:45;5.15;;;1.90;;
28988;SDS011;16089;59.952;10.818;2022-08-03T13:16:11;4.95;;;1.58;;
28988;SDS011;16089;59.952;10.818;2022-08-03T13:18:38;4.15;;;1.60;;
28988;SDS011;16089;59.952;10.818;2022-08-03T13:21:04;8.77;;;1.60;;
28988;SDS011;16089;59.952;10.818;2022-08-03T13:23:30;7.35;;;1.60;;
28988;SDS011;16089;59.952;10.818;2022-08-03T13:25:59;5.13;;;1.55;;
28988;SDS011;16089;59.952;10.818;2022-08-03T13:28:25;4.15;;;1.40;;
28988;SDS011;16089;59.952;10.818;2022-08-03T13:30:51;5.65;;;1.85;;
28988;SDS011;16089;59.952;10.818;2022-08-03T13:33:18;5.05;;;1.50;;
28988;SDS011;16089;59.952;10.818;2022-08-03T13:35:45;4.30;;;1.50;;
28988;SDS011;16089;59.952;10.818;2022-08-03T13:38:11;6.57;;;1.40;;
28988;SDS011;16089;59.952;10.818;2022-08-03T13:40:37;4.63;;;1.42;;
28988;SDS011;16089;59.952;10.818;2022-08-03T13:43:05;4.63;;;1.80;;
28988;SDS011;16089;59.952;10.818;2022-08-03T13:45:31;5.90;;;1.60;;
28988;SDS011;16089;59.952;10.818;2022-08-03T13:47:58;5.80;;;1.90;;
28988;SDS011;16089;59.952;10.818;2022-08-03T13:50:25;7.63;;;2.03;;
28988;SDS011;16089;59.952;10.818;2022-08-03T13:52:51;4.70;;;1.98;;
28988;SDS011;16089;59.952;10.818;2022-08-03T13:55:18;6.57;;;1.80;;
28988;SDS011;16089;59.952;10.818;2022-08-03T13:57:44;4.90;;;1.70;;
28988;SDS011;16089;59.952;10.818;2022-08-03T14:00:12;6.25;;;2.00;;
28988;SDS011;16089;59.952;10.818;2022-08-03T14:02:39;6.65;;;1.80;;
28988;SDS011;16089;59.952;10.818;2022-08-03T14:05:06;4.80;;;1.63;;
28988;SDS011;16089;59.952;10.818;2022-08-03T14:07:33;5.65;;;1.95;;
28988;SDS011;16089;59.952;10.818;2022-08-03T14:09:59;3.85;;;1.55;;
28988;SDS011;16089;59.952;10.818;2022-08-03T14:12:26;5.38;;;1.70;;
28988;SDS011;16089;59.952;10.818;2022-08-03T14:14:52;3.17;;;1.52;;
28988;SDS011;16089;59.952;10.818;2022-08-03T14:17:20;5.30;;;1.40;;
28988;SDS011;16089;59.952;10.818;2022-08-03T14:19:46;4.03;;;1.73;;
28988;SDS011;16089;59.952;10.818;2022-08-03T14:22:13;7.72;;;1.40;;
28988;SDS011;16089;59.952;10.818;2022-08-03T14:24:39;5.93;;;1.27;;
28988;SDS011;16089;59.952;10.818;2022-08-03T14:27:05;5.13;;;1.58;;
28988;SDS011;16089;59.952;10.818;2022-08-03T14:29:32;3.85;;;1.30;;
28988;SDS011;16089;59.952;10.818;2022-08-03T14:31:58;3.80;;;1.40;;
28988;SDS011;16089;59.952;10.818;2022-08-03T14:34:26;3.83;;;1.33;;
28988;SDS011;16089;59.952;10.818;2022-08-03T14:36:52;5.88;;;1.30;;
28988;SDS011;16089;59.952;10.818;2022-08-03T14:39:18;6.40;;;1.35;;
28988;SDS011;16089;59.952;10.818;2022-08-03T14:41:45;5.03;;;1.40;;
28988;SDS011;16089;59.952;10.818;2022-08-03T14:44:11;4.45;;;1.35;;
28988;SDS011;16089;59.952;10.818;2022-08-03T14:46:38;5.43;;;1.83;;
28988;SDS011;16089;59.952;10.818;2022-08-03T14:49:04;5.47;;;1.63;;
28988;SDS011;16089;59.952;10.818;2022-08-03T14:51:32;6.15;;;1.73;;
28988;SDS011;16089;59.952;10.818;2022-08-03T14:53:58;4.43;;;1.67;;